Time;durP1;ratioP1;P1;durP2;ratioP2;P2;SDS_P1;SDS_P2;PMS_P1;PMS_P2;Temp;Humidity;BMP_temperature;BMP_pressure;BME280_temperature;BME280_humidity;BME280_pressure;Samples;Min_cycle;Max_cycle;Signal;HPM_P1;HPM_P2
2024/02/08 00:02:25;;;;;;;32.45;16.52;;;7.60;99.90;;;;;;5053404;28;19908;-66
2024/02/08 00:04:51;;;;;;;;;;;7.60;99.90;;;;;;5072895;28;20021;-69
2024/02/08 00:07:17;;;;;;;30.00;17.25;;;7.70;99.90;;;;;;5071985;28;19951;-68
2024/02/08 00:09:42;;;;;;;;;;;7.60;99.90;;;;;;5055159;28;20033;-68
2024/02/08 00:12:08;;;;;;;24.15;14.77;;;7.60;99.90;;;;;;5072635;28;19908;-70
2024/02/08 00:14:34;;;;;;;;;;;7.50;99.90;;;;;;5058087;28;20024;-68
2024/02/08 00:17:02;;;;;;;28.30;16.05;;;7.50;99.90;;;;;;5075908;28;19954;-73
2024/02/08 00:19:28;;;;;;;34.28;18.50;;;7.40;99.90;;;;;;5053617;28;20054;-67
2024/02/08 00:21:56;;;;;;;46.78;24.85;;;7.30;99.90;;;;;;5071248;28;20078;-67
2024/02/08 00:24:22;;;;;;;63.03;32.83;;;7.20;99.90;;;;;;5070309;28;20040;-68
2024/02/08 00:26:47;;;;;;;;;;;7.10;99.90;;;;;;5053322;28;20048;-67
2024/02/08 00:29:13;;;;;;;32.88;18.23;;;7.00;99.90;;;;;;5070933;28;19957;-66
2024/02/08 00:31:38;;;;;;;;;;;7.00;99.90;;;;;;5053396;28;20409;-68
2024/02/08 00:34:04;;;;;;;34.67;19.15;;;6.90;99.90;;;;;;5069768;28;19977;-68
2024/02/08 00:36:30;;;;;;;;;;;6.90;99.90;;;;;;5071182;28;20028;-67
2024/02/08 00:38:55;;;;;;;33.75;18.75;;;6.80;99.90;;;;;;5070812;28;19915;-66
2024/02/08 00:41:23;;;;;;;;;;;6.80;99.90;;;;;;5071111;28;20025;-67
2024/02/08 00:43:52;;;;;;;40.60;20.08;;;6.70;99.90;;;;;;5070535;28;19914;-68
2024/02/08 00:46:19;;;;;;;45.40;21.50;;;6.60;99.90;;;;;;5052785;28;20698;-69
2024/02/08 00:48:45;;;;;;;39.17;21.10;;;6.60;99.90;;;;;;5070472;28;20036;-68
2024/02/08 00:51:10;;;;;;;;;;;6.60;99.90;;;;;;5070474;28;20047;-69
2024/02/08 00:53:36;;;;;;;50.10;22.73;;;6.50;99.90;;;;;;5070367;28;19908;-68
2024/02/08 00:56:02;;;;;;;;;;;6.40;99.90;;;;;;5070933;28;20405;-68
2024/02/08 00:58:28;;;;;;;35.88;18.23;;;6.40;99.90;;;;;;5070324;28;19920;-68
2024/02/08 01:00:54;;;;;;;;;;;6.40;99.90;;;;;;5070713;28;20024;-68
2024/02/08 01:03:23;;;;;;;44.13;21.55;;;6.40;99.90;;;;;;5070245;28;19916;-68
2024/02/08 01:05:51;;;;;;;46.38;22.98;;;6.40;99.90;;;;;;5070122;28;20043;-67
2024/02/08 01:08:17;;;;;;;48.90;20.73;;;6.40;99.90;;;;;;5052374;28;20515;-68
2024/02/08 01:10:43;;;;;;;;;;;6.40;99.90;;;;;;5070548;28;20512;-68
2024/02/08 01:13:08;;;;;;;36.38;19.15;;;6.40;99.90;;;;;;5069930;28;19904;-68
2024/02/08 01:15:35;;;;;;;;;;;6.30;99.90;;;;;;5070989;28;20689;-66
2024/02/08 01:18:03;;;;;;;40.35;19.48;;;6.20;99.90;;;;;;5070220;28;20301;-68
2024/02/08 01:20:29;;;;;;;38.78;21.08;;;6.20;99.90;;;;;;5069785;28;20037;-68
2024/02/08 01:22:57;;;;;;;35.35;19.60;;;6.10;99.90;;;;;;5069519;28;20513;-68
2024/02/08 01:25:23;;;;;;;48.75;26.00;;;6.10;99.90;;;;;;5051678;28;20058;-68
2024/02/08 01:27:48;;;;;;;;;;;6.10;99.90;;;;;;5070150;28;20036;-68
2024/02/08 01:30:14;;;;;;;39.92;19.80;;;6.00;99.90;;;;;;5052007;28;19919;-67
2024/02/08 01:32:40;;;;;;;;;;;6.00;99.90;;;;;;5070176;28;20027;-68
2024/02/08 01:35:06;;;;;;;30.60;16.38;;;6.00;99.90;;;;;;5069652;28;19908;-68
2024/02/08 01:37:38;;;;;;;30.80;16.17;;;5.90;99.90;;;;;;5051612;28;20036;-68
2024/02/08 01:40:12;;;;;;;27.88;16.05;;;5.90;99.90;;;;;;5051604;28;20022;-67
2024/02/08 01:42:38;;;;;;;32.33;18.25;;;5.90;99.90;;;;;;5069547;28;20021;-68
2024/02/08 01:45:30;;;;;;;;;;;5.90;99.90;;;;;;5070169;28;20051;-67
2024/02/08 01:48:10;;;;;;;28.23;16.33;;;5.80;99.90;;;;;;5067454;28;19908;-66
2024/02/08 01:50:48;;;;;;;33.60;19.52;;;5.80;99.90;;;;;;5069629;28;20216;-67
2024/02/08 01:53:20;;;;;;;44.97;21.52;;;5.70;99.90;;;;;;5069545;28;20024;-68
2024/02/08 01:55:49;;;;;;;33.63;18.42;;;5.60;99.90;;;;;;5069780;28;20020;-70
2024/02/08 01:58:15;;;;;;;30.88;18.35;;;5.60;99.90;;;;;;5071359;28;20461;-69
2024/02/08 02:00:48;;;;;;;;;;;5.50;99.90;;;;;;5070945;28;20036;-68
2024/02/08 02:03:15;;;;;;;31.38;15.82;;;5.40;99.90;;;;;;5051967;28;19916;-67
2024/02/08 02:05:42;;;;;;;29.60;16.75;;;5.40;99.90;;;;;;5068953;28;20040;-67
2024/02/08 02:08:10;;;;;;;26.35;16.38;;;5.40;99.90;;;;;;5051034;28;20024;-67
2024/02/08 02:10:36;;;;;;;28.25;16.35;;;5.40;99.90;;;;;;5069077;28;20064;-67
2024/02/08 02:13:04;;;;;;;;;;;5.30;99.90;;;;;;5069394;28;20056;-67
2024/02/08 02:15:31;;;;;;;31.25;16.70;;;5.30;99.90;;;;;;5068873;28;20094;-68
2024/02/08 02:18:01;;;;;;;27.45;15.75;;;5.30;99.90;;;;;;5068786;28;20021;-67
2024/02/08 02:20:29;;;;;;;28.23;17.80;;;5.20;99.90;;;;;;5068955;28;20044;-67
2024/02/08 02:22:59;;;;;;;31.55;17.35;;;5.10;99.90;;;;;;5050559;28;20052;-68
2024/02/08 02:25:26;;;;;;;28.73;15.90;;;5.10;99.90;;;;;;5068657;28;20531;-68
2024/02/08 02:27:55;;;;;;;35.20;17.90;;;5.00;99.90;;;;;;5068765;28;20031;-67
2024/02/08 02:30:22;;;;;;;29.20;17.73;;;5.00;99.90;;;;;;5068754;28;20107;-67
2024/02/08 02:32:52;;;;;;;35.85;18.00;;;4.90;99.90;;;;;;5050637;28;20104;-67
2024/02/08 02:35:18;;;;;;;35.92;17.63;;;5.00;99.90;;;;;;5050678;28;20035;-68
2024/02/08 02:37:49;;;;;;;31.35;19.25;;;4.90;99.90;;;;;;5068669;28;20765;-68
2024/02/08 02:40:22;;;;;;;28.73;17.00;;;4.90;99.90;;;;;;5068681;28;20087;-68
2024/02/08 02:42:52;;;;;;;33.92;18.52;;;4.90;99.90;;;;;;5067864;28;20064;-67
2024/02/08 02:45:23;;;;;;;36.33;18.88;;;4.90;99.90;;;;;;5068473;28;20074;-67
2024/02/08 02:47:56;;;;;;;30.27;17.17;;;4.90;99.90;;;;;;5068538;28;20056;-68
2024/02/08 02:50:22;;;;;;;28.25;15.70;;;4.90;99.90;;;;;;5068508;28;20083;-68
2024/02/08 02:52:49;;;;;;;30.67;16.52;;;5.00;99.90;;;;;;5068508;28;20020;-68
2024/02/08 02:55:16;;;;;;;30.67;17.08;;;5.00;99.90;;;;;;5068472;28;20534;-67
2024/02/08 02:57:42;;;;;;;27.58;16.95;;;5.10;99.90;;;;;;5067581;28;20597;-68
2024/02/08 03:00:33;;;;;;;;;;;5.10;99.90;;;;;;5068897;28;20104;-68
2024/02/08 03:03:07;;;;;;;28.73;16.25;;;5.20;99.90;;;;;;5068482;28;19908;-68
2024/02/08 03:05:36;;;;;;;36.85;16.92;;;5.20;99.90;;;;;;5049796;28;20463;-66
2024/02/08 03:08:05;;;;;;;33.15;15.57;;;5.20;99.90;;;;;;5068399;28;20533;-69
2024/02/08 03:10:33;;;;;;;27.77;15.70;;;5.30;99.90;;;;;;5067778;28;20064;-67
2024/02/08 03:12:59;;;;;;;30.65;15.68;;;5.30;99.90;;;;;;5068361;28;20035;-68
2024/02/08 03:15:24;;;;;;;;;;;5.30;99.90;;;;;;5072762;28;20032;-68
2024/02/08 03:17:50;;;;;;;23.23;14.15;;;5.40;99.90;;;;;;5054474;28;19904;-68
2024/02/08 03:20:29;;;;;;;;;;;5.40;99.90;;;;;;5054597;28;20050;-68
2024/02/08 03:22:59;;;;;;;26.52;14.77;;;5.40;99.90;;;;;;5072004;28;19931;-68
2024/02/08 03:25:25;;;;;;;32.10;15.48;;;5.40;99.90;;;;;;5071993;28;20044;-68
2024/02/08 03:27:51;;;;;;;29.60;16.48;;;5.50;99.90;;;;;;5072029;28;20827;-68
2024/02/08 03:30:52;;;;;;;24.92;13.52;;;5.50;99.90;;;;;;5054092;28;20025;-66
2024/02/08 03:33:15;;;;;;;24.98;13.75;;;5.50;99.90;;;;;;5068786;28;20041;-68
2024/02/08 03:35:42;;;;;;;25.17;13.63;;;5.50;99.90;;;;;;5072721;28;20017;-68
2024/02/08 03:38:08;;;;;;;21.38;13.30;;;5.60;99.90;;;;;;5071954;28;20029;-68
2024/02/08 03:40:34;;;;;;;;;;;5.60;99.90;;;;;;5074739;28;20027;-70
2024/02/08 03:43:00;;;;;;;21.88;14.20;;;5.60;99.90;;;;;;5076027;28;20003;-70
2024/02/08 03:45:29;;;;;;;;;;;5.50;99.90;;;;;;5074336;28;20078;-68
2024/02/08 03:47:59;;;;;;;24.67;14.27;;;5.60;99.90;;;;;;5056293;28;19939;-69
2024/02/08 03:50:33;;;;;;;30.67;15.95;;;5.60;99.90;;;;;;5076610;28;20025;-69
2024/02/08 03:53:12;;;;;;;24.20;13.30;;;5.50;99.90;;;;;;5068625;28;20078;-68
2024/02/08 03:55:43;;;;;;;29.52;15.90;;;5.50;99.90;;;;;;5053462;28;20036;-66
2024/02/08 03:58:09;;;;;;;29.10;16.42;;;5.50;99.90;;;;;;5071747;28;20562;-66
2024/02/08 04:00:35;;;;;;;26.88;15.80;;;5.60;99.90;;;;;;5070626;28;20024;-67
2024/02/08 04:03:10;;;;;;;23.23;13.88;;;5.60;99.90;;;;;;5071560;28;20028;-68
2024/02/08 04:05:37;;;;;;;30.35;16.35;;;5.60;99.90;;;;;;5053295;28;20032;-68
2024/02/08 04:54:43;;;;;;;23.50;15.15;;;6.20;99.90;;;;;;5071532;28;20127;-67
2024/02/08 04:57:11;;;;;;;26.95;14.40;;;6.20;99.90;;;;;;5070449;28;20107;-68
2024/02/08 04:59:42;;;;;;;25.50;13.95;;;6.20;99.90;;;;;;5070331;28;20106;-67
2024/02/08 05:02:09;;;;;;;23.27;13.68;;;6.10;99.90;;;;;;5052572;28;20051;-68
2024/02/08 05:04:35;;;;;;;23.05;14.10;;;6.20;99.90;;;;;;5070222;28;20554;-68
2024/02/08 05:07:04;;;;;;;27.77;15.48;;;6.20;99.90;;;;;;5063998;28;20122;-67
2024/02/08 05:09:31;;;;;;;24.58;13.18;;;6.10;99.90;;;;;;5064022;28;20025;-68
2024/02/08 05:11:59;;;;;;;23.42;13.10;;;6.10;99.90;;;;;;5064186;28;20036;-68
2024/02/08 05:14:25;;;;;;;22.42;13.30;;;6.10;99.90;;;;;;5040718;28;20132;-68
2024/02/08 05:16:54;;;;;;;28.13;16.48;;;6.10;99.90;;;;;;5058774;28;20048;-68
2024/02/08 05:19:23;;;;;;;23.85;14.10;;;6.20;99.90;;;;;;5051717;28;20028;-67
2024/02/08 05:21:49;;;;;;;37.47;21.50;;;6.30;99.90;;;;;;5063472;28;20025;-67
2024/02/08 05:24:15;;;;;;;52.80;28.95;;;6.40;99.90;;;;;;5057081;28;20515;-68
2024/02/08 05:26:41;;;;;;;;;;;6.40;99.90;;;;;;5048825;28;20036;-67
2024/02/08 05:29:08;;;;;;;27.15;15.25;;;6.50;99.90;;;;;;5055260;28;20307;-67
2024/02/08 05:31:39;;;;;;;23.83;14.23;;;6.40;99.90;;;;;;5051847;28;20051;-66
2024/02/08 05:34:10;;;;;;;23.98;16.15;;;6.40;99.90;;;;;;5051523;28;20033;-68
2024/02/08 05:36:39;;;;;;;30.63;17.75;;;6.30;99.90;;;;;;5051342;28;20035;-67
2024/02/08 05:39:09;;;;;;;25.67;15.65;;;6.20;99.90;;;;;;5069542;28;20028;-68
2024/02/08 05:41:34;;;;;;;22.45;14.45;;;6.20;99.90;;;;;;5069423;28;20033;-68
2024/02/08 05:44:05;;;;;;;;;;;6.20;99.90;;;;;;5069787;28;20029;-67
2024/02/08 05:46:37;;;;;;;24.63;13.88;;;6.20;99.90;;;;;;5063107;28;19943;-67
2024/02/08 05:49:04;;;;;;;23.80;15.07;;;6.20;99.90;;;;;;5069053;28;20032;-65
2024/02/08 05:51:33;;;;;;;25.35;14.43;;;6.20;99.90;;;;;;5069386;28;20043;-68
2024/02/08 05:54:02;;;;;;;23.90;14.43;;;6.20;99.90;;;;;;5069351;28;20020;-68
2024/02/08 05:56:30;;;;;;;25.70;16.00;;;6.20;99.90;;;;;;5069409;28;20586;-65
2024/02/08 05:59:01;;;;;;;28.83;16.27;;;6.20;99.90;;;;;;5069069;28;20060;-68
2024/02/08 06:01:31;;;;;;;29.70;15.75;;;6.20;99.90;;;;;;5050729;28;20588;-67
2024/02/08 06:04:00;;;;;;;25.58;16.20;;;6.10;99.90;;;;;;5050753;28;20054;-68
2024/02/08 06:06:37;;;;;;;29.30;17.80;;;6.10;99.90;;;;;;5050433;28;20052;-68
2024/02/08 06:09:16;;;;;;;33.10;18.27;;;6.10;99.90;;;;;;5068764;28;20029;-67
2024/02/08 06:11:43;;;;;;;27.00;17.17;;;6.10;99.90;;;;;;5068513;28;20032;-67
2024/02/08 06:14:22;;;;;;;28.50;16.52;;;6.10;99.90;;;;;;5068805;28;20504;-66
2024/02/08 06:16:53;;;;;;;35.85;20.60;;;6.20;99.90;;;;;;5050672;28;20060;-67
2024/02/08 06:19:21;;;;;;;51.00;27.40;;;6.20;99.90;;;;;;5066449;28;20032;-68
2024/02/08 06:21:54;;;;;;;40.58;23.20;;;6.30;99.90;;;;;;5060647;28;20631;-69
2024/02/08 06:26:56;;;;;;;35.95;21.58;;;6.20;99.90;;;;;;5064867;28;20086;-69
2024/02/08 06:29:26;;;;;;;33.20;19.65;;;6.20;99.90;;;;;;5050186;28;20404;-68
2024/02/08 06:32:08;;;;;;;36.55;19.40;;;6.10;99.90;;;;;;5065276;28;20048;-68
2024/02/08 06:34:45;;;;;;;33.60;19.55;;;6.10;99.90;;;;;;5050650;28;20512;-68
2024/02/08 06:37:26;;;;;;;27.95;16.88;;;6.10;99.90;;;;;;5050517;28;20059;-68
2024/02/08 06:39:56;;;;;;;29.42;17.13;;;6.20;99.90;;;;;;5050656;28;20029;-67
2024/02/08 06:42:47;;;;;;;28.33;17.23;;;6.20;99.90;;;;;;5068364;28;20028;-69
2024/02/08 06:45:25;;;;;;;25.77;16.02;;;6.20;99.90;;;;;;5068234;28;20031;-67
2024/02/08 06:47:56;;;;;;;25.13;14.57;;;6.20;99.90;;;;;;5065500;28;20025;-65
2024/02/08 07:39:36;;;;;;;32.92;16.63;;;7.60;99.90;;;;;;5068235;28;20040;-67
2024/02/08 07:42:19;;;;;;;26.20;16.88;;;7.60;99.90;;;;;;5068255;28;20450;-68
2024/02/08 07:44:50;;;;;;;26.60;15.75;;;7.60;99.90;;;;;;5050003;28;20447;-68
2024/02/08 07:47:24;;;;;;;28.05;16.10;;;7.70;99.90;;;;;;5067886;28;20044;-69
2024/02/08 07:49:57;;;;;;;23.90;13.82;;;7.70;99.90;;;;;;5067922;28;20020;-68
2024/02/08 07:52:24;;;;;;;25.13;13.85;;;7.80;99.90;;;;;;5068172;28;20103;-69
2024/02/08 07:54:56;;;;;;;24.80;15.35;;;7.80;99.90;;;;;;5050039;28;20021;-68
2024/02/08 07:57:26;;;;;;;27.98;16.38;;;8.00;99.90;;;;;;5067826;28;20025;-69
2024/02/08 07:59:59;;;;;;;55.97;33.88;;;8.10;99.90;;;;;;5067968;28;20025;-69
2024/02/08 08:02:29;;;;;;;55.58;27.65;;;8.20;99.90;;;;;;5071196;28;20056;-69
2024/02/08 08:04:56;;;;;;;32.25;19.02;;;8.30;99.90;;;;;;5053351;28;20066;-67
2024/02/08 08:07:25;;;;;;;35.38;16.77;;;8.40;99.90;;;;;;5053572;28;20039;-68
2024/02/08 08:10:08;;;;;;;23.17;15.77;;;8.50;99.90;;;;;;5071533;28;20622;-68
2024/02/08 08:12:37;;;;;;;20.30;13.20;;;8.60;99.90;;;;;;5071221;28;20562;-69
2024/02/08 08:17:40;;;;;;;24.58;14.70;;;8.70;99.90;;;;;;5071119;28;20158;-68
2024/02/08 08:23:00;;;;;;;21.45;11.88;;;8.70;99.90;;;;;;5071131;28;20074;-69
2024/02/08 08:25:28;;;;;;;22.17;13.68;;;8.70;99.90;;;;;;5070959;28;20546;-68
2024/02/08 08:28:10;;;;;;;20.50;13.23;;;8.70;99.90;;;;;;5070903;28;20082;-69
2024/02/08 08:30:38;;;;;;;22.92;14.15;;;8.70;99.90;;;;;;5071072;28;20029;-68
2024/02/08 08:40:48;;;;;;;25.23;13.57;;;8.70;99.90;;;;;;5070814;28;20043;-68
2024/02/08 08:43:19;;;;;;;25.75;13.77;;;8.90;99.90;;;;;;5052667;28;20043;-68
2024/02/08 08:46:10;;;;;;;19.92;12.32;;;9.10;99.90;;;;;;5070596;28;20037;-67
2024/02/08 08:48:36;;;;;;;23.98;13.45;;;9.30;99.90;;;;;;5052674;28;20035;-65
2024/02/08 08:51:11;;;;;;;;;;;9.40;99.90;;;;;;5071124;28;20040;-68
2024/02/08 08:53:56;;;;;;;23.58;12.10;;;9.60;99.90;;;;;;5070501;28;19904;-69
2024/02/08 08:56:22;;;;;;;18.20;11.00;;;9.80;99.90;;;;;;5070425;28;20729;-68
2024/02/08 08:58:49;;;;;;;;;;;10.00;99.90;;;;;;5052944;28;20035;-69
2024/02/08 09:01:22;;;;;;;18.70;9.90;;;10.30;99.90;;;;;;5070416;28;19999;-67
2024/02/08 09:04:25;;;;;;;15.20;10.30;;;10.40;99.90;;;;;;5052274;28;20549;-69
2024/02/08 09:06:52;;;;;;;16.08;9.77;;;10.70;99.90;;;;;;5052113;28;20032;-67
2024/02/08 09:09:27;;;;;;;18.17;9.77;;;10.90;99.90;;;;;;5052229;28;20028;-69
2024/02/08 09:11:59;;;;;;;17.20;10.10;;;11.10;99.90;;;;;;5069658;28;20056;-68
2024/02/08 09:14:30;;;;;;;16.33;9.60;;;11.20;99.90;;;;;;5052054;28;20561;-68
2024/02/08 09:16:57;;;;;;;18.50;9.38;;;11.40;99.90;;;;;;5051864;28;20075;-68
2024/02/08 09:19:27;;;;;;;19.63;9.95;;;11.60;99.90;;;;;;5051995;28;20131;-68
2024/02/08 09:21:54;;;;;;;18.38;9.50;;;11.80;99.90;;;;;;5069860;28;20510;-68
2024/02/08 09:24:22;;;;;;;19.52;9.32;;;11.90;99.90;;;;;;5069783;28;20044;-69
2024/02/08 09:26:48;;;;;;;15.07;8.65;;;12.30;99.90;;;;;;5069880;28;20085;-69
2024/02/08 09:29:23;;;;;;;;;;;12.80;99.90;;;;;;5052574;28;20032;-69
2024/02/08 09:32:00;;;;;;;17.33;8.60;;;13.10;99.90;;;;;;5051660;28;20132;-68
2024/02/08 09:34:40;;;;;;;17.42;7.50;;;13.70;99.90;;;;;;5069629;28;20033;-67
2024/02/08 09:37:09;;;;;;;11.02;6.90;;;14.20;98.70;;;;;;5051963;28;20119;-69
2024/02/08 09:39:58;;;;;;;15.07;6.70;;;14.70;96.20;;;;;;5069602;28;20029;-69
2024/02/08 09:42:26;;;;;;;15.82;7.03;;;15.00;92.90;;;;;;5069461;28;20025;-69
2024/02/08 09:44:56;;;;;;;13.18;5.85;;;15.40;88.80;;;;;;5069553;28;20059;-68
2024/02/08 09:47:31;;;;;;;12.63;6.28;;;15.80;83.40;;;;;;5069426;28;20409;-68
2024/02/08 09:50:00;;;;;;;11.77;5.90;;;15.90;78.20;;;;;;5051378;28;20097;-67
2024/02/08 09:52:30;;;;;;;11.73;6.03;;;15.50;78.10;;;;;;5069216;28;20021;-69
2024/02/08 09:55:06;;;;;;;10.10;5.93;;;15.20;76.80;;;;;;5069290;28;20025;-69
2024/02/08 09:57:45;;;;;;;12.45;5.53;;;14.70;79.30;;;;;;5069186;28;20031;-69
2024/02/08 10:03:04;;;;;;;12.43;6.40;;;14.40;81.90;;;;;;5069027;28;20055;-69
2024/02/08 10:05:57;;;;;;;13.10;6.22;;;14.00;83.90;;;;;;5069071;28;20536;-69
2024/02/08 10:08:31;;;;;;;9.73;5.50;;;13.80;86.00;;;;;;5051189;28;20570;-68
2024/02/08 10:11:11;;;;;;;11.98;5.38;;;13.60;88.90;;;;;;5069446;28;20048;-68
2024/02/08 10:16:43;;;;;;;15.63;6.63;;;13.50;89.50;;;;;;5068952;28;20052;-68
2024/02/08 10:19:28;;;;;;;18.98;8.82;;;13.40;89.70;;;;;;5050784;28;20028;-69
2024/02/08 10:22:18;;;;;;;11.18;6.55;;;13.30;89.80;;;;;;5050883;28;20493;-69
2024/02/08 10:27:19;;;;;;;11.90;6.53;;;13.50;91.20;;;;;;5068693;28;20428;-69
2024/02/08 10:29:50;;;;;;;10.77;5.03;;;13.70;90.80;;;;;;5068709;28;20478;-69
2024/02/08 10:32:19;;;;;;;8.90;4.30;;;13.80;89.60;;;;;;5068697;28;20059;-69
2024/02/08 10:34:45;;;;;;;9.52;4.90;;;13.80;88.40;;;;;;5068737;28;20042;-68
2024/02/08 10:37:46;;;;;;;12.75;3.15;;;13.80;90.00;;;;;;5068710;28;20497;-69
2024/02/08 10:40:23;;;;;;;3.65;1.70;;;13.80;89.10;;;;;;5068478;28;20563;-69
2024/02/08 10:42:49;;;;;;;3.47;1.50;;;13.90;85.10;;;;;;5068346;28;20115;-68
2024/02/08 10:45:17;;;;;;;4.95;1.80;;;13.80;82.80;;;;;;5068543;28;20051;-70
2024/02/08 10:47:47;;;;;;;4.43;1.88;;;13.70;84.10;;;;;;5068669;28;20037;-69
2024/02/08 10:50:19;;;;;;;5.10;1.38;;;13.60;85.40;;;;;;5050537;28;20024;-68
2024/02/08 10:52:49;;;;;;;3.95;1.30;;;13.50;85.40;;;;;;5050417;28;20496;-68
2024/02/08 10:55:18;;;;;;;7.00;1.15;;;13.40;85.30;;;;;;5050499;28;20493;-67
2024/02/08 10:58:21;;;;;;;4.63;1.92;;;13.30;85.30;;;;;;5050511;28;20020;-67
2024/02/08 11:03:14;;;;;;;3.58;1.67;;;13.10;89.50;;;;;;5068361;28;20052;-68
2024/02/08 11:08:50;;;;;;;3.35;1.30;;;13.10;90.00;;;;;;5068593;28;20025;-67
2024/02/08 11:11:12;;;;;;;5.10;0.98;;;13.30;88.50;;;;;;5067479;28;20043;-66
2024/02/08 11:13:43;;;;;;;2.97;1.10;;;13.40;87.50;;;;;;5068317;28;20029;-68
2024/02/08 11:16:21;;;;;;;6.95;2.25;;;13.50;86.40;;;;;;5050212;28;20508;-67
2024/02/08 11:18:52;;;;;;;6.20;1.90;;;13.40;88.40;;;;;;5068250;28;20028;-68
2024/02/08 11:21:28;;;;;;;6.38;1.88;;;13.40;89.30;;;;;;5068140;28;20067;-68
2024/02/08 11:23:57;;;;;;;6.75;2.55;;;13.70;89.60;;;;;;5049824;28;20587;-68
2024/02/08 11:26:25;;;;;;;10.27;1.63;;;13.80;88.20;;;;;;5068208;28;20048;-68
2024/02/08 11:29:18;;;;;;;5.32;2.15;;;13.90;85.70;;;;;;5050029;28;20024;-68
2024/02/08 11:31:46;;;;;;;6.93;1.70;;;14.00;86.30;;;;;;5067968;28;20036;-66
2024/02/08 11:34:14;;;;;;;3.58;1.70;;;14.10;86.80;;;;;;5067885;28;20021;-67
2024/02/08 11:36:42;;;;;;;3.55;1.60;;;14.30;84.70;;;;;;5071655;28;20500;-68
2024/02/08 11:39:27;;;;;;;12.45;1.58;;;14.40;81.90;;;;;;5053675;28;20051;-66
2024/02/08 11:42:00;;;;;;;4.03;1.23;;;14.50;81.70;;;;;;5053582;28;20390;-69
2024/02/08 11:44:35;;;;;;;2.67;1.23;;;14.40;81.70;;;;;;5071325;28;20048;-68
2024/02/08 11:47:17;;;;;;;4.15;1.33;;;14.60;80.30;;;;;;5037775;28;20412;-68
2024/02/08 11:50:03;;;;;;;7.18;1.55;;;14.50;80.40;;;;;;5071828;28;20058;-67
2024/02/08 11:52:29;;;;;;;3.10;1.23;;;14.40;79.90;;;;;;5071960;28;20038;-68
2024/02/08 11:55:06;;;;;;;3.20;0.80;;;14.40;79.00;;;;;;5071628;28;20025;-68
2024/02/08 11:57:40;;;;;;;2.35;0.93;;;14.50;79.50;;;;;;5071581;28;20100;-67
2024/02/08 12:00:16;;;;;;;3.45;0.65;;;14.70;78.40;;;;;;5071585;28;20064;-67
2024/02/08 12:02:54;;;;;;;1.80;0.60;;;14.80;78.30;;;;;;5071435;28;20060;-67
2024/02/08 12:05:20;;;;;;;1.60;0.70;;;14.80;77.10;;;;;;5053345;28;20033;-68
2024/02/08 12:07:46;;;;;;;1.33;0.50;;;14.80;76.10;;;;;;5053284;28;20040;-68
2024/02/08 12:10:22;;;;;;;3.35;0.65;;;14.90;76.60;;;;;;5071351;28;20029;-69
2024/02/08 12:12:52;;;;;;;1.20;0.47;;;14.90;76.30;;;;;;5071280;28;20052;-68
2024/02/08 12:15:20;;;;;;;1.13;0.50;;;15.00;75.00;;;;;;5071276;28;20349;-68
2024/02/08 12:17:48;;;;;;;3.95;0.50;;;15.00;74.60;;;;;;5071098;28;20029;-68
2024/02/08 12:20:16;;;;;;;1.83;0.60;;;15.00;74.60;;;;;;5053070;28;20035;-68
2024/02/08 12:22:41;;;;;;;1.95;0.50;;;15.00;73.70;;;;;;5071031;28;20417;-68
2024/02/08 12:25:18;;;;;;;1.33;0.47;;;15.00;72.70;;;;;;5053262;28;20031;-68
2024/02/08 12:27:48;;;;;;;;;;;15.00;72.70;;;;;;5071332;28;20032;-68
2024/02/08 12:30:25;;;;;;;2.50;0.60;;;15.00;72.10;;;;;;5070987;28;19946;-67
2024/02/08 12:32:51;;;;;;;1.67;0.57;;;14.90;72.40;;;;;;5052840;28;20078;-68
2024/02/08 12:35:20;;;;;;;4.75;0.35;;;14.80;71.90;;;;;;5053027;28;20119;-68
2024/02/08 12:37:48;;;;;;;3.05;0.30;;;14.70;71.50;;;;;;5070926;28;20024;-68
2024/02/08 12:40:16;;;;;;;2.05;0.40;;;14.60;71.10;;;;;;5053076;28;20060;-68
2024/02/08 12:42:42;;;;;;;1.08;0.30;;;14.50;71.40;;;;;;5070770;28;20035;-68
2024/02/08 12:45:12;;;;;;;2.13;0.47;;;14.30;71.80;;;;;;5070550;28;20447;-68
2024/02/08 12:47:41;;;;;;;2.60;0.40;;;14.10;73.30;;;;;;5069875;28;20070;-69
2024/02/08 12:50:09;;;;;;;1.17;0.57;;;14.00;73.70;;;;;;5070610;28;20028;-68
2024/02/08 12:52:36;;;;;;;2.17;0.73;;;13.80;74.90;;;;;;5070511;28;20031;-68
2024/02/08 12:55:02;;;;;;;2.13;1.10;;;13.60;76.30;;;;;;5052488;28;20495;-65
2024/02/08 12:57:28;;;;;;;2.25;0.75;;;13.50;77.60;;;;;;5070638;28;20051;-68
2024/02/08 13:00:02;;;;;;;;;;;13.40;79.50;;;;;;5070855;28;20477;-68
2024/02/08 13:02:32;;;;;;;4.72;0.73;;;13.30;80.80;;;;;;5070203;28;20399;-67
2024/02/08 13:05:01;;;;;;;2.40;0.70;;;13.20;81.60;;;;;;5070419;28;20136;-67
2024/02/08 13:07:27;;;;;;;1.35;0.52;;;13.30;82.00;;;;;;5070164;28;20121;-67
2024/02/08 13:10:00;;;;;;;;;;;13.20;81.90;;;;;;5070532;28;20025;-68
2024/02/08 13:12:27;;;;;;;2.55;0.68;;;13.20;83.10;;;;;;5070013;28;19977;-68
2024/02/08 13:14:53;;;;;;;1.60;0.60;;;13.20;84.60;;;;;;5069922;28;20029;-68
2024/02/08 13:17:19;;;;;;;;;;;13.10;84.90;;;;;;5070441;28;20052;-70
2024/02/08 13:19:55;;;;;;;2.55;0.40;;;13.10;85.20;;;;;;5069886;28;19908;-69
2024/02/08 13:22:25;;;;;;;3.40;0.70;;;13.00;86.20;;;;;;5069693;28;20021;-69
2024/02/08 13:24:54;;;;;;;5.60;0.43;;;13.00;86.20;;;;;;5063541;28;20033;-70
2024/02/08 13:27:24;;;;;;;2.33;0.75;;;13.00;86.80;;;;;;5069725;28;20103;-68
2024/02/08 13:29:54;;;;;;;1.20;0.40;;;13.00;87.70;;;;;;5069872;28;20480;-68
2024/02/08 13:32:30;;;;;;;2.00;0.52;;;13.00;87.30;;;;;;5069706;28;20025;-67
2024/02/08 13:34:57;;;;;;;1.55;0.50;;;13.00;86.10;;;;;;5051775;28;20082;-68
2024/02/08 13:37:26;;;;;;;2.70;0.73;;;13.00;86.80;;;;;;5069613;28;20028;-70
2024/02/08 13:40:07;;;;;;;2.17;0.52;;;13.00;87.80;;;;;;5069593;28;20028;-69
2024/02/08 13:42:33;;;;;;;5.82;0.60;;;13.00;87.70;;;;;;5069550;28;20024;-69
2024/02/08 13:45:01;;;;;;;;;;;13.00;87.30;;;;;;5051860;28;20034;-69
2024/02/08 13:47:30;;;;;;;3.33;0.70;;;13.00;87.70;;;;;;5069364;28;19913;-68
2024/02/08 13:49:57;;;;;;;8.27;0.70;;;12.80;88.70;;;;;;5069368;28;20103;-69
2024/02/08 13:52:25;;;;;;;3.83;0.80;;;12.80;90.20;;;;;;5069260;28;20025;-69
2024/02/08 13:54:54;;;;;;;3.05;0.60;;;12.80;90.10;;;;;;5051363;28;20452;-69
2024/02/08 13:57:21;;;;;;;3.85;0.93;;;12.80;90.10;;;;;;5069469;28;20021;-70
2024/02/08 13:59:48;;;;;;;2.72;0.65;;;12.70;90.40;;;;;;5069042;28;20078;-68
2024/02/08 14:02:15;;;;;;;3.35;1.00;;;12.70;90.60;;;;;;5069276;28;20020;-69
2024/02/08 14:04:50;;;;;;;5.10;0.95;;;12.70;90.60;;;;;;5069265;28;20032;-68
2024/02/08 14:07:24;;;;;;;3.80;1.00;;;12.70;90.70;;;;;;5068956;28;20081;-66
2024/02/08 14:09:58;;;;;;;2.70;0.82;;;12.70;90.90;;;;;;5068987;28;20103;-68
2024/02/08 14:12:25;;;;;;;4.15;1.13;;;12.70;90.40;;;;;;5050902;28;20027;-67
2024/02/08 14:14:55;;;;;;;16.08;7.28;;;12.80;90.20;;;;;;5068945;28;20115;-69
2024/02/08 14:17:34;;;;;;;6.47;3.38;;;12.80;90.20;;;;;;5051087;28;20032;-69
2024/02/08 14:20:00;;;;;;;2.55;0.75;;;12.80;90.10;;;;;;5051024;28;20035;-68
2024/02/08 14:22:33;;;;;;;2.22;0.85;;;12.70;90.40;;;;;;5068650;28;20028;-67
2024/02/08 14:24:59;;;;;;;3.67;0.82;;;12.60;90.60;;;;;;5068789;28;20044;-69
2024/02/08 14:27:28;;;;;;;4.53;1.08;;;12.60;90.80;;;;;;5068527;28;20040;-66
2024/02/08 14:29:55;;;;;;;6.75;0.98;;;12.60;90.90;;;;;;5068678;28;20117;-70
2024/02/08 14:32:21;;;;;;;;;;;12.60;91.20;;;;;;5068787;28;20032;-69
2024/02/08 14:34:47;;;;;;;3.28;1.27;;;12.70;91.00;;;;;;5068820;28;19915;-68
2024/02/08 14:37:13;;;;;;;3.58;1.10;;;12.70;90.90;;;;;;5068675;28;20036;-68
2024/02/08 14:39:38;;;;;;;;;;;12.70;90.90;;;;;;5069075;28;20028;-69
2024/02/08 14:42:13;;;;;;;7.20;1.05;;;12.60;91.20;;;;;;5068571;28;19954;-70
2024/02/08 14:44:44;;;;;;;2.60;1.23;;;12.60;91.30;;;;;;5068556;28;20032;-69
2024/02/08 14:47:21;;;;;;;3.00;1.10;;;12.60;91.10;;;;;;5068434;28;20032;-70
2024/02/08 14:49:58;;;;;;;1.95;0.95;;;12.50;91.50;;;;;;5068554;28;20024;-69
2024/02/08 14:52:29;;;;;;;3.05;0.80;;;12.50;91.80;;;;;;5068456;28;20491;-68
2024/02/08 14:54:59;;;;;;;1.33;0.43;;;12.50;92.10;;;;;;5068478;28;20020;-68
2024/02/08 14:57:38;;;;;;;3.63;1.33;;;12.40;92.50;;;;;;5050491;28;20596;-70
2024/02/08 15:02:55;;;;;;;6.18;0.98;;;12.30;93.20;;;;;;5068757;28;20039;-69
2024/02/08 15:05:46;;;;;;;6.95;1.48;;;12.20;93.50;;;;;;5068530;28;20025;-69
2024/02/08 15:10:47;;;;;;;4.95;1.58;;;12.10;94.10;;;;;;5071099;28;20086;-68
2024/02/08 15:13:18;;;;;;;7.00;1.50;;;12.10;94.50;;;;;;5072315;28;20040;-69
2024/02/08 15:15:50;;;;;;;6.22;2.45;;;12.10;94.70;;;;;;5072555;28;20572;-69
2024/02/08 15:18:30;;;;;;;3.67;1.98;;;12.10;94.90;;;;;;5072241;28;20028;-70
2024/02/08 15:20:56;;;;;;;6.72;1.98;;;12.00;95.10;;;;;;5072052;28;20037;-69